Time;durP1;ratioP1;P1;durP2;ratioP2;P2;SDS_P1;SDS_P2;PMS_P1;PMS_P2;Temp;Humidity;BMP_temperature;BMP_pressure;BME280_temperature;BME280_humidity;BME280_pressure;Samples;Min_cycle;Max_cycle;Signal;HPM_P1;HPM_P2
2021/05/13 00:01:48;;;;;;;3.05;2.10;;;;;;;21.65;53.95;99937.21;1791147;78;21060;-56
2021/05/13 00:04:14;;;;;;;2.40;1.90;;;;;;;21.65;53.95;99944.70;1796901;78;20990;-57
2021/05/13 00:06:40;;;;;;;2.52;1.75;;;;;;;21.63;53.97;99941.48;1786931;78;20966;-56
2021/05/13 00:09:09;;;;;;;2.37;1.85;;;;;;;21.61;53.96;99939.06;1801546;78;20987;-56
2021/05/13 00:11:37;;;;;;;2.60;1.70;;;;;;;21.62;53.95;99938.48;1801116;78;21489;-56
2021/05/13 00:14:06;;;;;;;3.33;1.82;;;;;;;21.60;53.93;99936.05;1813479;78;20973;-57
2021/05/13 00:16:34;;;;;;;3.00;1.80;;;;;;;21.59;53.96;99930.30;1789759;78;21843;-56
2021/05/13 00:19:05;;;;;;;2.60;1.85;;;;;;;21.59;53.96;99932.27;1801786;78;21535;-56
2021/05/13 00:21:31;;;;;;;3.42;1.57;;;;;;;21.58;53.97;99932.02;1799675;78;21390;-56
2021/05/13 00:23:57;;;;;;;1.92;1.55;;;;;;;21.56;53.96;99926.83;1783837;78;21688;-56
2021/05/13 00:26:35;;;;;;;2.75;1.70;;;;;;;21.55;53.97;99925.23;1796744;78;21084;-56
2021/05/13 00:28:51;;;;;;;3.25;1.90;;;;;;;21.55;53.98;99917.50;1775475;78;21432;-56
2021/05/13 00:31:18;;;;;;;3.30;1.87;;;;;;;21.54;53.99;99922.22;1791992;78;21575;-56
2021/05/13 00:33:44;;;;;;;2.47;1.75;;;;;;;21.53;53.99;99920.60;1800967;78;20910;-57
2021/05/13 00:36:10;;;;;;;3.25;1.82;;;;;;;21.53;54.00;99918.41;1805984;78;21457;-56
2021/05/13 00:38:36;;;;;;;2.25;1.42;;;;;;;21.51;54.01;99921.53;1790678;78;21554;-57
2021/05/13 00:41:02;;;;;;;3.45;2.00;;;;;;;21.50;54.01;99919.11;1792445;78;21717;-56
2021/05/13 00:43:28;;;;;;;2.67;1.65;;;;;;;21.49;54.04;99916.91;1797064;78;21723;-56
2021/05/13 00:45:55;;;;;;;2.83;1.72;;;;;;;21.48;54.05;99916.67;1794650;78;21049;-56
2021/05/13 00:48:21;;;;;;;2.70;1.60;;;;;;;21.47;54.04;99909.55;1787685;78;21489;-57
2021/05/13 00:50:47;;;;;;;2.27;1.65;;;;;;;21.46;54.08;99913.45;1792391;78;21142;-56
2021/05/13 00:53:13;;;;;;;2.77;1.77;;;;;;;21.46;54.05;99907.92;1805166;78;21278;-56
2021/05/13 00:55:39;;;;;;;3.12;1.90;;;;;;;21.43;54.06;99910.78;1778068;79;21058;-56
2021/05/13 00:58:07;;;;;;;2.72;1.67;;;;;;;21.43;54.07;99909.41;1798902;78;20969;-56
2021/05/13 01:03:00;;;;;;;3.22;1.70;;;;;;;21.43;54.07;99907.81;1818325;77;21328;-56
2021/05/13 01:05:30;;;;;;;2.45;1.72;;;;;;;21.40;54.09;99903.75;1810320;78;21490;-55
2021/05/13 01:07:57;;;;;;;2.62;1.92;;;;;;;21.38;54.10;99899.97;1809664;77;20992;-56
2021/05/13 01:10:25;;;;;;;2.35;1.85;;;;;;;21.38;54.10;99901.35;1806858;78;21073;-55
2021/05/13 01:12:52;;;;;;;3.05;1.77;;;;;;;21.37;54.11;99899.73;1806659;77;20994;-55
2021/05/13 01:15:25;;;;;;;3.95;1.67;;;;;;;21.35;54.10;99889.56;1814747;77;21516;-55
2021/05/13 01:18:01;;;;;;;2.25;1.62;;;;;;;21.34;54.12;99894.86;1808064;77;21853;-56
2021/05/13 01:20:21;;;;;;;2.27;1.55;;;;;;;21.34;54.12;99894.08;1805061;78;21054;-55
2021/05/13 01:22:47;;;;;;;2.85;1.72;;;;;;;21.33;54.15;99892.45;1813046;78;20995;-55
2021/05/13 01:25:14;;;;;;;2.75;1.90;;;;;;;21.32;54.15;99890.84;1821470;77;20872;-56
2021/05/13 01:27:40;;;;;;;1.95;1.70;;;;;;;21.30;54.16;99884.25;1801085;77;21067;-55
2021/05/13 01:30:08;;;;;;;3.22;1.70;;;;;;;21.29;54.16;99881.28;1811559;77;22101;-55
2021/05/13 01:32:34;;;;;;;1.75;1.35;;;;;;;21.29;54.17;99874.94;1822845;77;21133;-55
2021/05/13 01:35:00;;;;;;;2.15;1.22;;;;;;;21.27;54.18;99874.45;1819515;78;20925;-55
2021/05/13 01:37:26;;;;;;;2.40;1.65;;;;;;;21.27;54.19;99878.61;1822942;77;20946;-55
2021/05/13 01:39:52;;;;;;;2.65;1.77;;;;;;;21.25;54.19;99872.05;1814474;77;21061;-55
2021/05/13 01:42:18;;;;;;;2.50;2.10;;;;;;;21.25;54.20;99878.16;1812678;77;21458;-55
2021/05/13 01:44:44;;;;;;;2.22;1.67;;;;;;;21.23;54.22;99879.06;1824048;77;21081;-55
2021/05/13 01:47:11;;;;;;;2.45;1.80;;;;;;;21.23;54.21;99867.42;1804226;77;21027;-56
2021/05/13 01:49:37;;;;;;;2.65;1.80;;;;;;;21.23;54.22;99869.38;1807387;77;21569;-55
2021/05/13 01:52:04;;;;;;;2.20;1.42;;;;;;;21.22;54.22;99869.95;1816696;77;21396;-55
2021/05/13 01:54:31;;;;;;;2.37;1.60;;;;;;;21.21;54.22;99864.21;1811265;78;21106;-55
2021/05/13 01:57:06;;;;;;;2.05;1.55;;;;;;;21.19;54.24;99858.20;1821764;77;20993;-55
2021/05/13 01:59:32;;;;;;;2.22;1.60;;;;;;;21.19;54.25;99863.73;1801518;78;21237;-55
2021/05/13 02:01:59;;;;;;;2.05;1.60;;;;;;;21.17;54.24;99865.24;1819099;77;21012;-55
2021/05/13 02:04:26;;;;;;;2.00;1.40;;;;;;;21.17;54.24;99874.92;1817441;78;21078;-55
2021/05/13 02:06:53;;;;;;;2.87;1.70;;;;;;;21.16;54.26;99878.83;1804659;78;20966;-55
2021/05/13 02:09:19;;;;;;;2.35;1.80;;;;;;;21.16;54.25;99876.06;1810627;77;20909;-56
2021/05/13 02:11:45;;;;;;;2.05;1.67;;;;;;;21.15;54.27;99883.55;1806120;78;21530;-54
2021/05/13 02:14:11;;;;;;;2.47;1.60;;;;;;;21.13;54.27;99877.54;1814714;77;20926;-55
2021/05/13 02:16:37;;;;;;;1.60;1.22;;;;;;;21.11;54.25;99878.45;1820216;77;20956;-55
2021/05/13 02:19:03;;;;;;;2.33;1.70;;;;;;;21.12;54.30;99881.48;1817557;77;21445;-56
2021/05/13 02:21:30;;;;;;;3.20;1.77;;;;;;;21.11;54.29;99877.06;1811456;77;21580;-55
2021/05/13 02:23:56;;;;;;;1.60;1.50;;;;;;;21.10;54.30;99884.31;1816846;77;21054;-55
2021/05/13 02:26:22;;;;;;;2.65;1.55;;;;;;;21.10;54.31;99874.62;1809655;78;20963;-54
2021/05/13 02:28:48;;;;;;;1.90;1.37;;;;;;;21.09;54.30;99882.72;1823298;77;21068;-55
2021/05/13 02:31:15;;;;;;;1.85;1.45;;;;;;;21.08;54.32;99894.92;1809606;77;21125;-56
2021/05/13 02:33:41;;;;;;;3.17;1.67;;;;;;;21.07;54.33;99893.30;1813433;78;21502;-55
2021/05/13 02:36:08;;;;;;;2.50;1.52;;;;;;;21.06;54.34;99895.25;1795913;77;21054;-55
2021/05/13 02:38:35;;;;;;;2.58;1.70;;;;;;;21.05;54.34;99897.78;1830448;77;21062;-55
2021/05/13 02:41:02;;;;;;;2.10;1.40;;;;;;;21.05;54.35;99899.16;1817607;77;21119;-55
2021/05/13 02:43:28;;;;;;;1.45;1.10;;;;;;;21.04;54.34;99891.23;1795926;78;21538;-55
2021/05/13 02:45:54;;;;;;;2.05;1.42;;;;;;;21.03;54.34;99886.27;1814114;78;21589;-55
2021/05/13 02:48:20;;;;;;;2.33;1.50;;;;;;;21.03;54.36;99877.16;1813575;77;21054;-55
2021/05/13 02:50:46;;;;;;;2.20;1.50;;;;;;;21.02;54.36;99883.27;1806329;78;21502;-55
2021/05/13 02:53:13;;;;;;;2.45;1.60;;;;;;;21.01;54.38;99884.98;1818813;77;21031;-55
2021/05/13 02:55:40;;;;;;;2.12;1.80;;;;;;;21.00;54.38;99892.49;1822327;77;21102;-55
2021/05/13 02:58:07;;;;;;;2.33;1.32;;;;;;;20.99;54.39;99892.25;1827103;77;21022;-55
2021/05/13 03:00:50;;;;;;;2.15;1.70;;;;;;;21.00;54.39;99893.06;1812176;77;21069;-56
2021/05/13 03:03:04;;;;;;;;;;;;;;;20.96;54.40;99885.43;1815275;78;20950;-53
2021/05/13 03:05:30;;;;;;;1.87;1.55;;;;;;;20.96;54.38;99883.27;1809481;78;20196;-55
2021/05/13 03:08:02;;;;;;;1.40;1.20;;;;;;;20.93;54.42;99886.13;1820109;77;22138;-55
2021/05/13 03:13:14;;;;;;;1.95;1.55;;;;;;;20.92;54.43;99883.12;1808134;78;20513;-56
2021/05/13 03:15:39;;;;;;;;;;;;;;;20.89;54.43;99883.81;1810679;78;21095;-55
2021/05/13 03:18:06;;;;;;;1.70;1.32;;;;;;;20.89;54.43;99886.57;1830466;77;20231;-55
2021/05/13 03:20:38;;;;;;;2.65;1.47;;;;;;;20.87;54.44;99895.80;1815305;78;21198;-56
2021/05/13 03:23:07;;;;;;;2.70;1.75;;;;;;;20.87;54.46;99896.38;1813105;78;21540;-56
2021/05/13 03:25:36;;;;;;;2.40;1.50;;;;;;;20.85;54.47;99902.80;1778784;79;20886;-55
2021/05/13 03:28:08;;;;;;;2.67;1.52;;;;;;;20.84;54.48;99895.08;1807976;78;21039;-56
2021/05/13 03:30:39;;;;;;;2.52;1.60;;;;;;;20.83;54.48;99899.02;1774397;78;21014;-55
2021/05/13 03:33:06;;;;;;;2.45;1.32;;;;;;;20.83;54.50;99891.30;1795077;78;21058;-55
2021/05/13 03:35:33;;;;;;;2.25;1.50;;;;;;;20.83;54.52;99888.53;1790580;78;21485;-55
2021/05/13 03:38:00;;;;;;;1.42;1.15;;;;;;;20.82;54.52;99895.20;1793099;78;21085;-55
2021/05/13 03:40:28;;;;;;;2.17;1.60;;;;;;;20.82;54.52;99889.09;1799692;78;21441;-56
2021/05/13 03:42:55;;;;;;;1.87;1.60;;;;;;;20.81;54.53;99887.47;1777053;78;21033;-56
2021/05/13 03:45:21;;;;;;;3.27;1.30;;;;;;;20.81;54.56;99884.70;1774427;79;21105;-55
2021/05/13 03:47:48;;;;;;;2.15;1.60;;;;;;;20.80;54.54;99890.00;1787002;78;21058;-57
2021/05/13 03:50:14;;;;;;;2.42;1.45;;;;;;;20.80;54.56;99887.23;1780477;79;21564;-55
2021/05/13 03:52:41;;;;;;;1.85;1.42;;;;;;;20.80;54.55;99891.95;1777158;79;20988;-55
2021/05/13 03:55:09;;;;;;;2.05;1.37;;;;;;;20.80;54.55;99896.09;1770276;78;21197;-56
2021/05/13 03:57:35;;;;;;;1.52;1.30;;;;;;;20.79;54.57;99893.91;1784243;79;21130;-56
2021/05/13 04:00:06;;;;;;;1.55;1.20;;;;;;;20.79;54.58;99887.59;1788083;78;20990;-56
2021/05/13 04:02:32;;;;;;;2.37;1.50;;;;;;;20.78;54.58;99888.16;1772590;79;20903;-55
2021/05/13 04:04:59;;;;;;;1.70;1.30;;;;;;;20.77;54.59;99881.58;1782700;78;20971;-55
2021/05/13 04:07:30;;;;;;;1.85;1.40;;;;;;;20.77;54.59;99882.39;1776946;78;21010;-56
2021/05/13 04:09:56;;;;;;;;;;;;;;;20.77;54.59;99882.39;1805243;78;21058;-56
2021/05/13 04:12:23;;;;;;;2.00;1.32;;;;;;;20.77;54.60;99885.16;1813679;78;20176;-56
2021/05/13 04:14:50;;;;;;;1.37;1.27;;;;;;;20.77;54.59;99888.50;1794209;78;21056;-55
2021/05/13 04:17:17;;;;;;;2.62;1.98;;;;;;;20.76;54.60;99889.64;1781460;78;21515;-55
2021/05/13 04:19:43;;;;;;;2.25;1.52;;;;;;;20.74;54.59;99889.99;1796285;78;21105;-56
2021/05/13 04:22:09;;;;;;;1.65;1.30;;;;;;;20.75;54.60;99891.59;1792734;78;21121;-56
2021/05/13 04:24:36;;;;;;;2.10;1.57;;;;;;;20.76;54.61;99895.16;1782726;78;21575;-56
2021/05/13 04:27:02;;;;;;;1.95;1.50;;;;;;;20.75;54.60;99890.20;1783863;78;20938;-56
2021/05/13 04:29:30;;;;;;;1.70;1.40;;;;;;;20.76;54.60;99884.11;1804818;78;21027;-56
2021/05/13 04:31:56;;;;;;;5.17;1.55;;;;;;;20.75;54.60;99881.91;1788995;78;20994;-56
2021/05/13 04:34:22;;;;;;;2.67;1.45;;;;;;;20.76;54.61;99884.92;1794482;78;21559;-56
2021/05/13 04:36:48;;;;;;;1.62;1.30;;;;;;;20.76;54.61;99879.96;1801586;78;20992;-55
2021/05/13 04:39:14;;;;;;;1.82;1.35;;;;;;;20.76;54.59;99890.45;1797382;78;21400;-56
2021/05/13 04:41:40;;;;;;;2.10;1.47;;;;;;;20.77;54.61;99894.02;1792453;78;20972;-56
2021/05/13 04:44:07;;;;;;;2.25;1.60;;;;;;;20.77;54.60;99901.75;1786950;78;21043;-55
2021/05/13 04:46:34;;;;;;;2.77;1.47;;;;;;;20.78;54.58;99903.37;1798366;78;21058;-56
2021/05/13 04:51:32;;;;;;;1.47;1.30;;;;;;;20.78;54.58;99903.94;1795086;78;20972;-56
2021/05/13 04:53:59;;;;;;;2.10;1.50;;;;;;;20.78;54.57;99900.61;1798357;78;21149;-56
2021/05/13 04:56:25;;;;;;;2.62;1.70;;;;;;;20.79;54.55;99898.65;1797990;78;21011;-55
2021/05/13 04:58:51;;;;;;;2.45;1.22;;;;;;;20.79;54.55;99898.05;1791515;78;21070;-55
2021/05/13 05:01:18;;;;;;;2.37;1.45;;;;;;;20.78;54.56;99895.64;1786018;78;21099;-56
2021/05/13 05:03:44;;;;;;;2.08;1.35;;;;;;;20.79;54.55;99899.44;1805146;78;20915;-56
2021/05/13 05:06:10;;;;;;;1.80;1.37;;;;;;;20.78;54.54;99886.78;1798378;78;20978;-56
2021/05/13 05:08:39;;;;;;;2.47;1.60;;;;;;;20.79;54.54;99886.21;1796620;78;21446;-55
2021/05/13 05:11:06;;;;;;;1.72;1.35;;;;;;;20.79;54.54;99896.67;1807671;78;21295;-56
2021/05/13 05:13:33;;;;;;;2.17;1.30;;;;;;;20.79;54.53;99893.13;1792108;78;21083;-56
2021/05/13 05:15:59;;;;;;;1.67;1.30;;;;;;;20.79;54.53;99895.89;1779941;78;21502;-55
2021/05/13 05:18:25;;;;;;;1.57;1.30;;;;;;;20.78;54.54;99893.69;1788210;78;20999;-56
2021/05/13 05:20:52;;;;;;;4.25;1.40;;;;;;;20.80;54.53;99898.30;1771870;79;21039;-56
2021/05/13 05:23:19;;;;;;;2.33;1.67;;;;;;;20.79;54.53;99885.61;1777047;79;21613;-56
2021/05/13 05:25:45;;;;;;;1.95;1.75;;;;;;;20.80;54.54;99884.47;1784375;78;21106;-55
2021/05/13 05:28:12;;;;;;;2.17;1.37;;;;;;;20.80;54.53;99887.23;1781243;79;21057;-55
2021/05/13 05:30:39;;;;;;;1.70;1.35;;;;;;;20.80;54.52;99885.85;1803890;77;21060;-56
2021/05/13 05:33:08;;;;;;;2.15;1.40;;;;;;;20.80;54.53;99879.51;1773589;80;21110;-56
2021/05/13 05:35:35;;;;;;;2.05;1.50;;;;;;;20.81;54.53;99884.70;1799267;78;21077;-56
2021/05/13 05:38:02;;;;;;;1.87;1.40;;;;;;;20.82;54.52;99889.09;1792692;78;21519;-56
2021/05/13 05:40:28;;;;;;;2.00;1.50;;;;;;;20.83;54.54;99881.61;1796490;78;21003;-55
2021/05/13 05:42:54;;;;;;;2.22;1.70;;;;;;;20.84;54.54;99895.08;1800960;78;20995;-56
2021/05/13 05:45:21;;;;;;;1.90;1.60;;;;;;;20.85;54.53;99897.27;1781875;78;20969;-55
2021/05/13 05:47:48;;;;;;;2.67;1.67;;;;;;;20.86;54.55;99897.52;1804731;78;21742;-56
2021/05/13 05:50:14;;;;;;;1.95;1.50;;;;;;;20.87;54.53;99901.33;1801217;78;21046;-56
2021/05/13 05:52:40;;;;;;;2.12;1.60;;;;;;;20.88;54.52;99891.86;1790599;78;21010;-56
2021/05/13 05:55:08;;;;;;;2.12;1.45;;;;;;;20.89;54.51;99894.87;1800771;78;20921;-56
2021/05/13 05:57:34;;;;;;;2.12;1.50;;;;;;;20.90;54.51;99894.30;1803718;78;21109;-56
2021/05/13 06:00:01;;;;;;;1.70;1.40;;;;;;;20.90;54.50;99883.23;1798279;78;21077;-55
2021/05/13 06:02:27;;;;;;;1.85;1.47;;;;;;;20.92;54.52;99882.30;1790236;78;21030;-55
2021/05/13 06:04:54;;;;;;;2.67;1.75;;;;;;;20.93;54.50;99886.13;1800195;78;20997;-56
2021/05/13 06:07:21;;;;;;;2.27;1.50;;;;;;;20.94;54.48;99885.55;1803440;78;20963;-56
2021/05/13 06:09:47;;;;;;;2.30;1.60;;;;;;;20.93;54.49;99879.21;1788639;78;20997;-56
2021/05/13 06:12:13;;;;;;;2.75;1.47;;;;;;;20.95;54.48;99880.27;1798480;78;21198;-56
2021/05/13 06:14:40;;;;;;;2.65;1.35;;;;;;;20.97;54.47;99880.71;1787870;78;21515;-56
2021/05/13 06:17:06;;;;;;;1.70;1.25;;;;;;;21.00;54.42;99887.53;1786698;78;21049;-55
2021/05/13 06:19:32;;;;;;;1.98;1.62;;;;;;;21.01;54.41;99889.94;1792720;78;21110;-56
2021/05/13 06:21:58;;;;;;;1.95;1.60;;;;;;;21.01;54.39;99889.13;1792631;78;20953;-56
2021/05/13 06:24:25;;;;;;;1.62;1.27;;;;;;;21.02;54.38;99885.22;1793759;78;20968;-56
2021/05/13 06:26:56;;;;;;;2.00;1.60;;;;;;;21.03;54.37;99881.31;1801714;78;21701;-55
2021/05/13 06:29:22;;;;;;;1.70;1.55;;;;;;;21.03;54.35;99880.73;1804040;78;21088;-56
2021/05/13 06:31:48;;;;;;;2.20;1.55;;;;;;;21.04;54.35;99873.25;1789802;78;21542;-55
2021/05/13 06:34:14;;;;;;;2.25;1.52;;;;;;;21.05;54.31;99883.17;1799319;78;21101;-56
2021/05/13 06:36:41;;;;;;;1.90;1.45;;;;;;;21.05;54.33;99879.80;1801159;78;21304;-56
2021/05/13 06:39:07;;;;;;;3.80;1.70;;;;;;;21.07;54.34;99879.47;1799962;78;21553;-56
2021/05/13 06:41:33;;;;;;;2.20;1.77;;;;;;;21.07;54.33;99881.66;1793822;78;21031;-55
2021/05/13 06:43:59;;;;;;;1.92;1.70;;;;;;;21.08;54.31;99890.20;1792730;78;21012;-56
2021/05/13 06:46:25;;;;;;;3.65;1.70;;;;;;;21.09;54.30;99891.02;1810141;78;21410;-56
2021/05/13 06:48:52;;;;;;;1.90;1.57;;;;;;;21.09;54.30;99894.56;1792760;78;23263;-55
2021/05/13 06:51:19;;;;;;;3.15;1.90;;;;;;;21.09;54.30;99893.17;1802844;78;20964;-55
2021/05/13 06:53:45;;;;;;;2.42;1.60;;;;;;;21.10;54.31;99899.52;1785718;78;20950;-56
2021/05/13 06:56:12;;;;;;;2.30;1.90;;;;;;;21.09;54.30;99893.17;1797532;78;21081;-56
2021/05/13 06:58:39;;;;;;;3.22;2.10;;;;;;;21.10;54.30;99895.37;1791151;78;20945;-55
2021/05/13 07:01:06;;;;;;;3.10;1.80;;;;;;;21.09;54.31;99889.03;1782665;78;21049;-56
2021/05/13 07:03:32;;;;;;;2.22;1.72;;;;;;;21.11;54.31;99894.23;1805084;78;22620;-56
2021/05/13 07:05:59;;;;;;;2.22;1.82;;;;;;;21.09;54.33;99891.80;1783932;78;21034;-56
2021/05/13 07:08:25;;;;;;;2.85;1.85;;;;;;;21.10;54.35;99884.31;1779521;78;21023;-56
2021/05/13 07:10:51;;;;;;;2.42;1.82;;;;;;;21.11;54.32;99876.25;1788782;79;21139;-55
2021/05/13 07:13:17;;;;;;;3.27;1.98;;;;;;;21.12;54.34;99871.80;1773790;79;21893;-56
2021/05/13 07:15:43;;;;;;;2.05;1.80;;;;;;;21.14;54.34;99872.82;1792291;78;21069;-56
2021/05/13 07:18:14;;;;;;;2.10;1.70;;;;;;;21.15;54.31;99860.61;1783139;78;21520;-55
2021/05/13 07:20:40;;;;;;;;;;;;;;;21.16;54.31;99860.28;1801367;78;21046;-56
2021/05/13 07:23:06;;;;;;;1.87;1.67;;;;;;;21.17;54.27;99864.67;1795063;78;20527;-55
2021/05/13 07:25:33;;;;;;;1.92;1.67;;;;;;;21.17;54.30;99863.86;1809076;77;21205;-56
2021/05/13 07:27:59;;;;;;;2.35;1.82;;;;;;;21.19;54.29;99860.16;1817241;77;21056;-56
2021/05/13 07:30:26;;;;;;;2.08;1.87;;;;;;;21.20;54.28;99854.86;1807633;77;20948;-56
2021/05/13 07:32:52;;;;;;;2.65;2.20;;;;;;;21.22;54.27;99859.46;1810911;77;21149;-56
2021/05/13 07:35:19;;;;;;;2.40;1.72;;;;;;;21.22;54.26;99859.46;1802753;77;21091;-56
2021/05/13 07:37:46;;;;;;;2.02;1.77;;;;;;;21.21;54.25;99864.78;1826389;77;21098;-56
2021/05/13 07:40:15;;;;;;;2.17;1.80;;;;;;;21.22;54.26;99861.66;1815099;77;22190;-56
2021/05/13 07:42:41;;;;;;;2.17;1.87;;;;;;;21.23;54.26;99850.02;1819631;77;21529;-55
2021/05/13 07:45:09;;;;;;;2.90;2.00;;;;;;;21.24;54.27;99847.48;1813347;77;21249;-56
2021/05/13 07:47:40;;;;;;;3.58;2.12;;;;;;;21.23;54.25;99857.74;1832763;77;20955;-56
2021/05/13 07:50:08;;;;;;;2.35;1.90;;;;;;;21.24;54.26;99855.78;1783202;79;21295;-55
2021/05/13 07:52:34;;;;;;;2.05;1.85;;;;;;;21.24;54.25;99855.22;1803119;78;21055;-55
2021/05/13 07:55:02;;;;;;;1.90;1.62;;;;;;;21.25;54.27;99862.38;1797767;78;20999;-56
2021/05/13 07:57:28;;;;;;;2.92;1.92;;;;;;;21.25;54.27;99855.45;1781822;78;21061;-55
2021/05/13 07:59:54;;;;;;;2.77;1.98;;;;;;;21.27;54.29;99862.81;1780228;78;21521;-55
2021/05/13 08:02:20;;;;;;;3.60;2.15;;;;;;;21.29;54.29;99858.34;1785132;78;21896;-55
2021/05/13 08:04:48;;;;;;;2.60;2.02;;;;;;;21.31;54.30;99860.16;1783091;79;21097;-56
2021/05/13 08:07:19;;;;;;;2.75;1.90;;;;;;;21.34;54.29;99858.11;1791796;78;21460;-57
2021/05/13 08:09:43;;;;;;;2.47;1.95;;;;;;;21.34;54.28;99854.74;1784242;78;21466;-56
2021/05/13 08:12:10;;;;;;;2.25;1.87;;;;;;;21.37;54.28;99859.61;1787939;78;21029;-55
2021/05/13 08:14:36;;;;;;;2.02;1.82;;;;;;;21.38;54.25;99863.19;1800463;77;20935;-56
2021/05/13 08:17:02;;;;;;;2.35;1.70;;;;;;;21.38;54.24;99857.65;1793642;78;20977;-55
2021/05/13 08:19:28;;;;;;;2.85;2.10;;;;;;;21.37;54.26;99857.41;1794795;79;20899;-56
2021/05/13 08:21:55;;;;;;;3.17;2.15;;;;;;;21.35;54.27;99861.89;1799178;78;20994;-56
2021/05/13 08:24:21;;;;;;;1.98;1.70;;;;;;;21.34;54.29;99866.41;1799473;78;20951;-56
2021/05/13 08:26:47;;;;;;;2.65;1.92;;;;;;;21.32;54.30;99863.17;1818420;77;21442;-55
2021/05/13 08:29:13;;;;;;;2.08;1.85;;;;;;;21.31;54.34;99866.51;1817443;77;20985;-55
2021/05/13 08:31:39;;;;;;;2.87;2.10;;;;;;;21.29;54.37;99866.06;1809309;77;20987;-56
2021/05/13 08:34:05;;;;;;;2.60;2.10;;;;;;;21.29;54.38;99863.87;1808655;77;21030;-55
2021/05/13 08:36:32;;;;;;;2.90;2.20;;;;;;;21.26;54.42;99868.11;1810686;77;20940;-55
2021/05/13 08:38:58;;;;;;;2.50;2.00;;;;;;;21.27;54.43;99871.11;1811000;77;21432;-56
2021/05/13 08:41:24;;;;;;;2.70;2.02;;;;;;;21.26;54.46;99868.72;1824561;77;21569;-56
2021/05/13 08:43:51;;;;;;;2.40;2.20;;;;;;;21.25;54.49;99868.47;1809848;77;20963;-55
2021/05/13 08:46:19;;;;;;;2.12;1.85;;;;;;;21.24;54.49;99867.66;1810106;78;21508;-55
2021/05/13 08:48:46;;;;;;;2.27;2.00;;;;;;;21.24;54.51;99864.09;1813405;78;21036;-55
2021/05/13 08:51:12;;;;;;;2.90;1.80;;;;;;;21.24;54.51;99866.85;1813943;77;21452;-56
2021/05/13 08:53:55;;;;;;;2.30;1.98;;;;;;;21.23;54.55;99872.95;1808445;77;21453;-55
2021/05/13 08:56:22;;;;;;;2.33;2.10;;;;;;;21.23;54.54;99868.81;1818988;77;21503;-55
2021/05/13 08:58:48;;;;;;;4.03;2.30;;;;;;;21.23;54.55;99880.45;1828450;77;21675;-56
2021/05/13 09:01:18;;;;;;;2.80;2.17;;;;;;;21.23;54.56;99884.02;1817825;78;21547;-56
2021/05/13 09:03:46;;;;;;;2.27;1.90;;;;;;;21.22;54.57;99878.25;1822549;77;21502;-55
2021/05/13 09:06:37;;;;;;;2.33;1.85;;;;;;;21.24;54.57;99878.73;1793769;78;21472;-55
2021/05/13 09:09:19;;;;;;;2.70;1.90;;;;;;;21.23;54.60;99872.14;1802294;78;20944;-56
2021/05/13 09:11:54;;;;;;;4.30;2.10;;;;;;;21.23;54.58;99879.87;1801495;78;20985;-55
2021/05/13 09:14:25;;;;;;;2.25;1.95;;;;;;;21.23;54.58;99872.14;1789534;78;20986;-55
2021/05/13 09:16:51;;;;;;;3.15;2.20;;;;;;;21.23;54.58;99873.53;1771740;79;21195;-55
2021/05/13 09:19:32;;;;;;;2.33;2.08;;;;;;;21.22;54.61;99870.52;1800946;77;21073;-55
2021/05/13 09:22:04;;;;;;;;;;;;;;;21.21;54.62;99870.31;1825643;77;20887;-56
2021/05/13 09:24:59;;;;;;;2.22;1.95;;;;;;;21.21;54.61;99873.08;1821541;77;20238;-56
2021/05/13 09:27:47;;;;;;;2.67;2.15;;;;;;;21.18;54.65;99873.17;1818111;78;21006;-57
2021/05/13 09:30:29;;;;;;;2.33;1.90;;;;;;;21.18;54.64;99874.56;1822856;77;21035;-57
2021/05/13 09:32:56;;;;;;;2.50;2.00;;;;;;;21.18;54.66;99874.56;1804803;78;21446;-57
2021/05/13 09:35:24;;;;;;;1.90;1.70;;;;;;;21.17;54.67;99866.05;1790271;78;20985;-57
2021/05/13 09:37:55;;;;;;;2.83;2.17;;;;;;;21.20;54.69;99875.61;1781224;78;21100;-57
2021/05/13 09:40:52;;;;;;;2.70;1.95;;;;;;;21.21;54.67;99882.77;1797404;78;20987;-56
2021/05/13 09:43:20;;;;;;;2.45;2.12;;;;;;;21.22;54.70;99875.48;1783529;79;23164;-57
2021/05/13 09:45:50;;;;;;;2.00;1.72;;;;;;;21.24;54.70;99869.05;1779966;78;21129;-57
2021/05/13 09:48:41;;;;;;;4.17;2.00;;;;;;;21.27;54.66;99876.65;1783739;78;21030;-57
2021/05/13 09:51:27;;;;;;;1.92;1.72;;;;;;;21.29;54.65;99878.51;1801767;78;21044;-55
2021/05/13 09:54:16;;;;;;;2.47;2.17;;;;;;;21.31;54.64;99874.81;1785999;79;21485;-56
2021/05/13 09:56:46;;;;;;;2.20;2.00;;;;;;;21.32;54.62;99877.81;1794612;78;21558;-56
2021/05/13 09:59:38;;;;;;;3.10;2.50;;;;;;;21.35;54.61;99870.77;1790004;78;21059;-56
2021/05/13 10:02:06;;;;;;;2.77;2.10;;;;;;;21.37;54.61;99872.06;1783154;78;20993;-56
2021/05/13 10:04:32;;;;;;;2.30;2.00;;;;;;;21.40;54.61;99872.74;1790258;78;20906;-56
2021/05/13 10:06:59;;;;;;;2.10;1.90;;;;;;;21.43;54.57;99865.70;1783162;78;21059;-56
2021/05/13 10:09:25;;;;;;;2.15;1.80;;;;;;;21.45;54.56;99863.41;1795389;78;21078;-56
2021/05/13 10:11:56;;;;;;;2.70;1.98;;;;;;;21.46;54.57;99862.83;1810386;78;21070;-56
2021/05/13 10:14:25;;;;;;;2.80;2.12;;;;;;;21.46;54.57;99861.45;1791178;78;21029;-57
2021/05/13 10:16:54;;;;;;;2.77;2.27;;;;;;;21.46;54.57;99858.11;1786544;78;21148;-56
2021/05/13 10:19:38;;;;;;;2.45;1.80;;;;;;;21.45;54.58;99851.52;1795864;78;21066;-56
2021/05/13 10:22:04;;;;;;;2.05;1.85;;;;;;;21.43;54.61;99847.71;1795706;78;21225;-57
2021/05/13 10:24:30;;;;;;;3.05;2.33;;;;;;;21.41;54.62;99848.08;1780492;78;21540;-56
2021/05/13 10:26:56;;;;;;;2.25;1.90;;;;;;;21.42;54.65;99848.89;1804488;78;21039;-56
2021/05/13 10:29:28;;;;;;;3.77;2.20;;;;;;;21.41;54.67;99849.46;1791760;78;21101;-56
2021/05/13 10:32:17;;;;;;;2.25;1.80;;;;;;;21.40;54.69;99844.27;1785283;78;20971;-56
2021/05/13 10:34:48;;;;;;;2.50;1.98;;;;;;;21.39;54.71;99843.45;1806087;78;21451;-56
2021/05/13 10:37:37;;;;;;;2.05;1.82;;;;;;;21.38;54.73;99846.02;1795771;78;21081;-55
2021/05/13 10:42:40;;;;;;;2.08;1.87;;;;;;;21.39;54.76;99841.26;1800999;78;21455;-56
2021/05/13 10:45:32;;;;;;;3.02;2.40;;;;;;;21.42;54.77;99839.20;1805104;78;20992;-56
2021/05/13 10:48:25;;;;;;;2.47;2.27;;;;;;;21.43;54.76;99837.25;1797347;78;21798;-56
2021/05/13 10:51:04;;;;;;;2.45;2.10;;;;;;;21.45;54.76;99832.97;1789706;78;21078;-55
2021/05/13 10:53:48;;;;;;;2.45;2.10;;;;;;;21.46;54.74;99834.59;1795791;78;21026;-56
2021/05/13 10:56:35;;;;;;;2.00;1.77;;;;;;;21.47;54.72;99834.83;1797847;78;21031;-56
2021/05/13 10:59:14;;;;;;;2.40;1.70;;;;;;;21.47;54.72;99829.86;1789940;78;20923;-56
2021/05/13 11:01:51;;;;;;;2.52;2.30;;;;;;;21.49;54.70;99828.35;1805822;78;21101;-55
2021/05/13 11:04:27;;;;;;;2.05;1.85;;;;;;;21.50;54.69;99830.55;1800830;78;21074;-55
2021/05/13 11:07:06;;;;;;;2.50;2.00;;;;;;;21.53;54.70;99835.38;1797629;78;20953;-56
2021/05/13 11:09:48;;;;;;;2.33;1.98;;;;;;;21.53;54.67;99833.42;1805027;78;21669;-55
2021/05/13 11:12:28;;;;;;;3.05;2.12;;;;;;;21.55;54.67;99836.66;1787780;78;21037;-55
2021/05/13 11:15:03;;;;;;;2.77;2.22;;;;;;;21.58;54.66;99833.77;1782113;78;21090;-55
2021/05/13 11:20:40;;;;;;;3.25;2.12;;;;;;;21.58;54.64;99838.73;1787713;78;21445;-55
2021/05/13 11:23:22;;;;;;;2.27;2.02;;;;;;;21.60;54.63;99843.32;1789242;79;21724;-56
2021/05/13 11:25:54;;;;;;;2.15;1.95;;;;;;;21.63;54.63;99844.61;1771787;79;21066;-56
2021/05/13 11:28:42;;;;;;;2.67;2.20;;;;;;;21.65;54.61;99843.09;1800499;77;21082;-56
2021/05/13 11:31:20;;;;;;;2.50;2.00;;;;;;;21.65;54.61;99833.98;1778204;79;20987;-57
2021/05/13 11:33:50;;;;;;;2.52;2.27;;;;;;;21.65;54.58;99828.44;1789732;78;21081;-57
2021/05/13 11:36:30;;;;;;;2.17;1.98;;;;;;;21.61;54.56;99839.41;1788784;78;21045;-57
2021/05/13 11:39:00;;;;;;;2.20;2.00;;;;;;;21.61;54.60;99836.64;1785313;78;21132;-56
2021/05/13 11:41:27;;;;;;;2.37;1.87;;;;;;;21.61;54.61;99838.02;1794549;78;21546;-55
2021/05/13 11:43:53;;;;;;;2.37;2.15;;;;;;;21.62;54.63;99834.11;1801406;78;21458;-57
2021/05/13 11:46:22;;;;;;;2.30;1.90;;;;;;;21.65;54.63;99827.87;1800173;78;21050;-56
2021/05/13 11:48:50;;;;;;;2.83;2.27;;;;;;;21.65;54.60;99825.09;1790426;78;21051;-56
2021/05/13 11:51:28;;;;;;;2.25;2.05;;;;;;;21.65;54.61;99826.48;1801628;78;21595;-55
2021/05/13 11:53:56;;;;;;;2.40;2.20;;;;;;;21.65;54.61;99829.25;1768380;80;21086;-56
2021/05/13 11:56:23;;;;;;;2.47;2.15;;;;;;;21.64;54.65;99821.31;1812728;78;21094;-55